Latest Weather Observations for Bendigo

IDV60801

Issued at 6:03 pm EST Monday 25 September 2017 (issued every 30 minutes, with the page automatically refreshed every 10 minutes)

About weather observations | Map of weather stations | Latest weather observations for VIC | Other Formats
Station Details ID: 081123 Name: BENDIGO AIRPORT Lat: -36.74 Lon: 144.33 Height: 208.0 m
Data from the previous 72 hours. | See also: Recent months at Bendigo
Date/Time
EST
Temp
°C
App
Temp
°C
Dew
Point
°C
Rel
Hum
%
Delta-T
°C
Wind Press
QNH
hPa
Press
MSL
hPa
Rain since
9am
mm
Dir  Spd
km/h
Gust
km/h
Spd
kts
Gust
kts
25/06:00pm 12.3 8.1 5.9 65 3.0 SSW 17 22 9 12 1012.2 1012.3 0.0
25/05:30pm 13.2 7.8 6.3 63 3.3 SSW 24 35 13 19 1011.6 1011.8 0.0
25/05:00pm 15.0 10.2 5.8 54 4.5 SSW 20 30 11 16 1011.1 1011.3 0.0
25/04:30pm 15.1 10.2 5.0 51 4.8 SW 20 30 11 16 1010.8 1011.0 0.0
25/04:00pm 14.7 8.9 4.4 50 4.8 WSW 24 37 13 20 1010.4 1010.6 0.0
25/03:30pm 15.3 11.4 5.2 51 4.8 SW 15 28 8 15 1010.2 1010.4 0.0
25/03:00pm 15.8 9.3 4.5 47 5.4 W 28 37 15 20 1009.8 1009.9 0.0
25/02:30pm 15.9 9.3 4.0 45 5.6 W 28 41 15 22 1009.6 1009.7 0.0
25/02:00pm 16.5 9.7 5.2 47 5.5 WSW 30 46 16 25 1009.6 1009.7 0.0
25/01:53pm 16.7 10.2 4.7 45 5.7 WSW 28 46 15 25 1009.6 1009.7 0.0
25/01:30pm 16.1 9.5 4.2 45 5.6 W 28 41 15 22 1009.6 1009.7 0.0
25/01:09pm 16.3 9.6 5.6 49 5.2 W 30 48 16 26 1009.6 1009.7 0.0
25/01:00pm 15.9 9.6 5.8 51 4.9 W 28 43 15 23 1009.5 1009.6 0.0
25/12:30pm 16.6 10.5 4.9 46 5.6 WNW 26 39 14 21 1009.3 1009.4 0.0
25/12:00pm 17.0 10.6 5.0 45 5.8 W 28 43 15 23 1009.3 1009.4 0.0
25/11:30am 14.0 8.3 5.1 55 4.2 W 24 33 13 18 1009.4 1009.5 0.0
25/11:00am 14.5 9.0 5.8 56 4.2 W 24 35 13 19 1009.5 1009.6 0.0
25/10:30am 14.6 10.3 6.9 60 3.8 W 19 28 10 15 1009.5 1009.6 0.0
25/10:00am 13.1 8.5 6.5 64 3.2 WNW 20 33 11 18 1009.6 1009.7 0.0
25/09:30am 13.0 8.8 7.5 69 2.7 W 19 30 10 16 1009.6 1009.7 0.0
25/09:00am 12.1 8.3 7.6 74 2.2 W 17 30 9 16 1009.1 1009.2 0.0
25/08:30am 12.2 8.0 8.3 77 1.9 W 20 26 11 14 1008.7 1008.8 0.0
25/08:00am 11.0 6.7 7.9 81 1.5 W 20 28 11 15 1008.3 1008.4 0.0
25/07:30am 10.2 6.9 8.0 86 1.1 W 15 24 8 13 1007.9 1008.0 0.0
25/07:00am 9.3 6.3 7.7 90 0.8 W 13 19 7 10 1007.3 1007.4 0.0
25/06:30am 8.5 5.4 7.1 91 0.7 W 13 15 7 8 1006.9 1007.0 0.0
25/06:00am 8.0 5.1 6.6 91 0.7 WSW 11 17 6 9 1006.3 1006.5 0.0
25/05:30am 9.0 6.3 7.3 89 0.8 W 11 15 6 8 1006.1 1006.2 0.0
25/05:00am 9.0 6.6 7.0 87 1.0 W 9 15 5 8 1005.8 1005.9 0.0
25/04:30am 9.6 7.3 7.5 87 1.0 W 9 13 5 7 1005.7 1005.8 0.0
25/04:00am 9.4 6.7 7.3 87 1.0 WSW 11 17 6 9 1005.4 1005.5 0.0
25/03:50am 9.5 6.8 7.4 87 1.0 W 11 19 6 10 1005.2 1005.3 0.0
25/03:39am 9.6 6.2 7.7 88 0.9 W 15 28 8 15 1005.2 1005.3 0.0
25/03:30am 9.7 5.3 7.6 87 1.0 W 20 28 11 15 1005.0 1005.1 0.0
25/03:00am 9.4 5.9 7.3 87 1.0 W 15 22 8 12 1005.0 1005.1 0.0
25/02:30am 9.8 5.6 7.4 85 1.2 W 19 28 10 15 1005.2 1005.3 0.0
25/02:00am 10.3 6.0 7.7 84 1.3 W 20 30 11 16 1005.2 1005.3 0.0
25/01:30am 10.3 5.9 7.5 83 1.4 W 20 28 11 15 1005.5 1005.6 0.0
25/01:00am 10.4 5.7 7.6 83 1.4 W 22 33 12 18 1005.5 1005.6 0.0
25/12:30am 10.6 6.3 7.7 82 1.4 W 20 30 11 16 1005.5 1005.6 0.0
25/12:00am 10.8 5.8 7.9 82 1.4 W 24 33 13 18 1005.5 1005.6 0.0
 
Date/Time
EST
Temp
°C
App
Temp
°C
Dew
Point
°C
Rel
Hum
%
Delta-T
°C
Wind Press
QNH
hPa
Press
MSL
hPa
Rain since
9am
mm
Dir  Spd
km/h
Gust
km/h
Spd
kts
Gust
kts
24/11:30pm 10.9 5.2 8.5 85 1.2 WSW 28 39 15 21 1005.6 1005.7 0.0
24/11:00pm 11.9 6.7 7.2 73 2.3 W 24 35 13 19 1005.3 1005.4 0.0
24/10:30pm 11.8 5.4 7.1 73 2.3 W 30 44 16 24 1005.2 1005.3 0.0
24/10:03pm 11.9 5.9 7.2 73 2.3 W 28 48 15 26 1005.1 1005.2 0.0
24/10:00pm 12.1 6.1 7.0 71 2.5 W 28 43 15 23 1005.1 1005.2 0.0
24/09:37pm 12.3 6.2 6.8 69 2.7 W 28 46 15 25 1004.9 1005.0 0.0
24/09:30pm 12.4 6.0 6.9 69 2.7 W 30 44 16 24 1004.8 1004.9 0.0
24/09:00pm 12.5 7.6 7.0 69 2.7 W 22 32 12 17 1004.5 1004.6 0.0
24/08:35pm 13.3 6.4 6.4 63 3.3 W 32 50 17 27 1004.1 1004.2 0.0
24/08:30pm 13.4 6.3 6.3 62 3.4 W 33 48 18 26 1003.9 1004.0 0.0
24/08:00pm 13.9 7.5 5.0 55 4.2 W 28 43 15 23 1003.2 1003.3 0.0
24/07:43pm 14.4 7.8 4.4 51 4.7 W 28 48 15 26 1002.9 1003.0 0.0
24/07:30pm 14.5 8.5 3.6 48 5.0 W 24 43 13 23 1002.6 1002.7 0.0
24/07:00pm 15.0 9.3 2.9 44 5.5 W 22 33 12 18 1002.0 1002.0 0.0
24/06:30pm 15.4 9.3 2.6 42 5.8 W 24 35 13 19 1001.3 1001.4 0.0
24/06:00pm 16.2 10.9 2.9 41 6.1 WNW 20 33 11 18 1000.8 1000.9 0.0
24/05:30pm 17.1 9.3 1.9 36 6.9 WNW 32 46 17 25 1000.4 1000.5 0.0
24/05:00pm 18.0 10.5 1.5 33 7.5 WNW 30 50 16 27 1000.1 1000.2 0.0
24/04:31pm 18.1 10.7 2.0 34 7.4 WNW 30 48 16 26 999.8 999.9 0.0
24/04:30pm 18.1 10.3 1.6 33 7.5 WNW 32 48 17 26 999.8 999.9 0.0
24/04:03pm 18.1 10.3 1.6 33 7.5 W 32 50 17 27 999.8 999.9 0.0
24/04:00pm 17.8 9.4 1.3 33 7.5 W 35 50 19 27 999.7 999.8 0.0
24/03:51pm 18.3 9.5 1.3 32 7.7 WNW 37 69 20 37 999.8 999.9 0.0
24/03:30pm 17.6 10.1 1.2 33 7.4 WNW 30 59 16 32 999.7 999.8 0.0
24/03:03pm 18.4 10.8 2.7 35 7.3 NW 32 56 17 30 999.9 1000.0 0.0
24/03:00pm 17.5 9.7 1.9 35 7.1 NW 32 46 17 25 999.9 1000.0 0.0
24/02:30pm 17.1 10.3 3.1 39 6.5 WNW 28 46 15 25 1000.0 1000.1 0.0
24/02:11pm 17.8 10.7 3.3 38 6.8 WNW 30 48 16 26 1000.1 1000.2 0.0
24/02:00pm 16.9 9.3 2.9 39 6.5 WNW 32 48 17 26 1000.2 1000.3 0.0
24/01:32pm 16.6 10.0 4.0 43 5.9 WNW 28 50 15 27 1000.5 1000.6 0.0
24/01:30pm 16.4 9.8 4.1 44 5.8 WNW 28 43 15 23 1000.5 1000.6 0.0
24/01:08pm 16.0 8.9 5.3 49 5.2 NW 32 50 17 27 1000.7 1000.8 0.0
24/01:00pm 15.7 8.3 4.1 46 5.5 NW 32 46 17 25 1000.8 1000.9 0.0
24/12:30pm 15.4 8.0 3.9 46 5.4 WNW 32 52 17 28 1001.3 1001.4 0.0
24/12:00pm 15.3 8.8 4.7 49 5.0 WNW 28 52 15 28 1001.4 1001.5 0.0
24/11:30am 15.2 8.7 6.5 56 4.3 NW 30 46 16 25 1001.6 1001.7 0.0
24/11:00am 15.1 9.5 5.3 52 4.7 WNW 24 39 13 21 1001.6 1001.7 0.0
24/10:30am 14.9 8.8 4.9 51 4.7 WNW 26 41 14 22 1002.0 1002.0 0.0
24/10:00am 14.4 9.5 6.7 60 3.8 WNW 22 32 12 17 1002.0 1002.0 0.0
24/09:30am 13.0 8.6 7.5 69 2.7 NW 20 35 11 19 1002.2 1002.3 0.0
24/09:00am 12.5 7.3 7.4 71 2.5 WNW 24 35 13 19 1002.3 1002.4 0.0
24/08:30am 11.4 6.3 7.5 77 1.9 WNW 24 33 13 18 1002.1 1002.1 0.0
24/08:00am 10.6 5.8 7.3 80 1.6 NW 22 30 12 16 1001.6 1001.7 0.0
24/07:30am 9.8 5.5 7.2 84 1.2 NW 19 28 10 15 1001.4 1001.5 0.0
24/07:00am 9.4 5.2 7.3 87 1.0 NW 19 30 10 16 1001.3 1001.4 0.0
24/06:30am 8.5 5.4 7.1 91 0.7 NNW 13 19 7 10 1000.7 1000.8 0.0
24/06:00am 8.5 5.4 7.3 92 0.6 NNW 13 20 7 11 1000.3 1000.4 0.0
24/05:30am 9.1 6.4 7.5 90 0.8 NNW 11 15 6 8 1000.1 1000.2 0.0
24/05:00am 9.1 6.4 7.5 90 0.8 NNW 11 15 6 8 1000.4 1000.5 0.0
24/04:30am 9.4 6.4 7.8 90 0.8 NW 13 19 7 10 1000.7 1000.8 0.0
24/04:00am 9.6 7.0 7.7 88 0.9 NW 11 17 6 9 1000.6 1000.7 0.0
24/03:30am 10.6 7.3 8.2 85 1.2 WNW 15 19 8 10 1000.8 1000.9 0.0
24/03:00am 11.2 7.0 8.4 83 1.4 W 20 30 11 16 1000.8 1000.9 0.0
24/02:30am 11.5 7.9 8.5 82 1.5 W 17 24 9 13 1001.0 1001.1 0.0
24/02:00am 12.0 8.5 8.7 80 1.7 W 17 24 9 13 1001.0 1001.1 0.0
24/01:30am 11.9 8.5 7.8 76 2.0 W 15 20 8 11 1001.0 1001.1 0.0
24/01:00am 12.2 7.8 7.5 73 2.3 W 20 30 11 16 1001.0 1001.1 0.0
24/12:30am 12.7 8.3 7.4 70 2.6 WSW 20 32 11 17 1001.0 1001.1 0.0
24/12:00am 13.2 9.0 7.6 69 2.8 WSW 19 32 10 17 1000.7 1000.8 0.0
 
Date/Time
EST
Temp
°C
App
Temp
°C
Dew
Point
°C
Rel
Hum
%
Delta-T
°C
Wind Press
QNH
hPa
Press
MSL
hPa
Rain since
9am
mm
Dir  Spd
km/h
Gust
km/h
Spd
kts
Gust
kts
23/11:30pm 13.7 9.0 7.9 68 2.9 WSW 22 32 12 17 1000.5 1000.6 0.0
23/11:00pm 14.2 8.8 8.2 67 3.0 WSW 26 37 14 20 1000.2 1000.3 0.0
23/10:30pm 14.6 9.3 8.5 67 3.1 WSW 26 35 14 19 999.9 1000.0 0.0
23/10:00pm 14.9 10.7 8.4 65 3.3 WSW 20 32 11 17 999.8 999.9 0.0
23/09:30pm 15.7 9.9 8.0 60 3.9 WSW 28 43 15 23 999.6 999.7 0.0
23/09:02pm 16.4 10.5 7.3 55 4.6 WSW 28 50 15 27 999.5 999.6 0.0
23/09:00pm 16.5 10.5 7.2 54 4.7 WSW 28 43 15 23 999.5 999.6 0.0
23/08:30pm 17.1 11.9 5.7 47 5.6 W 22 35 12 19 999.1 999.2 0.0
23/08:00pm 17.9 11.6 5.5 44 6.1 W 28 39 15 21 998.8 998.9 0.0
23/07:30pm 19.1 11.8 4.5 38 7.1 WSW 32 44 17 24 998.1 998.2 0.0
23/07:00pm 20.0 12.1 4.5 36 7.6 W 35 50 19 27 997.4 997.4 0.0
23/06:30pm 21.1 12.9 2.9 30 8.7 W 35 54 19 29 996.9 996.9 0.0
23/06:00pm 22.2 13.3 5.2 33 8.6 W 41 59 22 32 996.0 996.1 0.0
23/05:30pm 24.0 16.0 7.6 35 8.7 W 39 59 21 32 994.7 994.8 0.0
23/05:00pm 26.3 18.8 6.4 28 10.6 W 35 61 19 33 993.1 993.1 0.0
23/04:30pm 27.8 20.4 6.6 26 11.3 WNW 35 54 19 29 992.5 992.5 0.0
23/04:00pm 28.4 20.9 6.5 25 11.8 W 35 57 19 31 992.1 992.1 0.0
23/03:30pm 29.5 20.7 3.5 19 13.3 WNW 39 59 21 32 991.9 991.9 0.0
23/03:00pm 30.5 21.8 4.3 19 13.8 W 39 59 21 32 991.4 991.5 0.0
23/02:30pm 31.8 22.9 1.0 14 15.3 WNW 37 63 20 34 990.8 990.9 0.0
23/02:06pm 31.6 22.7 0.9 14 15.2 WNW 37 65 20 35 990.5 990.6 0.0
23/02:00pm 31.1 24.2 2.3 16 14.7 NW 28 46 15 25 990.7 990.8 0.0
23/01:59pm 31.1 24.5 4.0 18 14.1 NW 28 44 15 24 990.7 990.8 0.0
23/01:30pm 29.4 27.7 10.0 30 11.0 N 9 17 5 9 991.2 991.3 0.0
23/01:00pm 27.6 24.6 9.4 32 10.2 NNE 15 19 8 10 992.3 992.3 0.0
23/12:30pm 25.9 22.4 8.8 34 9.4 NNE 17 22 9 12 993.2 993.2 0.0
23/12:00pm 24.7 21.2 8.6 36 8.8 NNE 17 22 9 12 994.1 994.2 0.0
23/11:30am 23.5 19.7 7.6 36 8.4 NNE 17 24 9 13 994.6 994.7 0.0
23/11:00am 22.4 17.8 5.8 34 8.5 NE 19 26 10 14 995.2 995.3 0.0
23/10:30am 22.2 18.3 5.2 33 8.5 NE 15 24 8 13 995.9 996.0 0.0
23/10:00am 21.1 17.8 6.6 39 7.5 ENE 13 19 7 10 997.0 997.0 0.0
23/09:30am 19.1 14.7 4.5 38 7.1 E 17 22 9 12 997.7 997.7 0.0
23/09:00am 17.8 13.9 3.3 38 6.8 ESE 13 20 7 11 998.4 998.5 0.0
23/08:30am 16.6 12.8 3.7 42 6.0 ESE 13 20 7 11 998.9 999.0 0.0
23/08:00am 15.3 11.2 4.4 48 5.2 SE 15 20 8 11 999.1 999.2 0.0
23/07:30am 13.8 10.2 4.9 55 4.2 SE 13 20 7 11 999.2 999.3 0.0
23/07:00am 12.8 9.0 4.0 55 4.1 SE 13 17 7 9 999.5 999.6 0.0
23/06:30am 11.6 8.3 4.3 61 3.3 ESE 11 15 6 8 1000.1 1000.2 0.0
23/06:00am 10.9 7.4 5.4 69 2.6 SE 13 15 7 8 1000.2 1000.3 0.0
23/05:30am 11.9 9.0 4.9 62 3.2 SE 9 11 5 6 1000.4 1000.5 0.0
23/05:00am 11.9 9.7 6.0 67 2.8 ESE 7 9 4 5 1001.6 1001.7 0.0
23/04:30am 13.0 10.7 5.7 61 3.5 E 7 15 4 8 1001.9 1001.9 0.0
23/04:00am 12.9 9.5 5.8 62 3.4 SE 13 20 7 11 1001.6 1001.7 0.0
23/03:30am 12.7 9.3 6.1 64 3.2 SE 13 17 7 9 1002.2 1002.3 0.0
23/03:00am 13.4 9.7 6.5 63 3.4 SE 15 20 8 11 1002.4 1002.5 0.0
23/02:30am 11.9 9.1 6.8 71 2.5 SSE 11 15 6 8 1002.8 1002.9 0.0
23/02:00am 12.4 9.5 6.7 68 2.8 SE 11 13 6 7 1003.3 1003.4 0.0
23/01:30am 11.9 9.5 6.8 71 2.5 ESE 9 11 5 6 1004.0 1004.1 0.0
23/01:00am 12.6 9.8 7.1 69 2.7 SSE 11 17 6 9 1004.5 1004.6 0.0
23/12:30am 11.9 9.5 7.2 73 2.3 SSE 9 13 5 7 1004.6 1004.7 0.0
23/12:00am 11.4 8.7 7.3 76 2.0 SE 11 11 6 6 1005.0 1005.1 0.0
 
Date/Time
EST
Temp
°C
App
Temp
°C
Dew
Point
°C
Rel
Hum
%
Delta-T
°C
Wind Press
QNH
hPa
Press
MSL
hPa
Rain since
9am
mm
Dir  Spd
km/h
Gust
km/h
Spd
kts
Gust
kts
22/11:30pm 12.0 9.0 7.9 76 2.0 SSE 13 15 7 8 1005.4 1005.5 0.0
22/11:00pm 12.7 10.6 8.2 74 2.3 SE 9 9 5 5 1005.5 1005.6 0.0
22/10:30pm 12.1 10.0 8.2 77 1.9 SE 9 11 5 6 1005.8 1005.9 0.0
22/10:00pm 12.8 10.9 9.1 78 1.9 SSE 9 11 5 6 1006.0 1006.1 0.0
22/09:30pm 12.5 10.6 9.1 80 1.7 SE 9 13 5 7 1006.0 1006.1 0.0
22/09:00pm 12.2 10.3 8.9 80 1.7 SSE 9 9 5 5 1006.2 1006.4 0.0
22/08:30pm 13.0 11.7 9.1 77 2.0 SE 6 7 3 4 1006.3 1006.5 0.0
22/08:00pm 14.0 12.5 9.2 73 2.5 SE 7 9 4 5 1006.4 1006.6 0.0
22/07:30pm 14.5 13.0 9.1 70 2.8 SSE 7 9 4 5 1006.1 1006.2 0.0
22/07:00pm 16.8 15.4 9.0 60 4.1 SE 6 7 3 4 1006.1 1006.2 0.0
22/06:30pm 19.8 18.0 9.4 51 5.6 ENE 9 15 5 8 1006.0 1006.1 0.0

Other Formats:

Comma delimited format used in spreadsheet applications
http://www.bom.gov.au/fwo/IDV60801/IDV60801.94855.axf

JavaScript Object Notation format (JSON) in row-major order
http://www.bom.gov.au/fwo/IDV60801/IDV60801.94855.json